sensor_id;sensor_type;location;lat;lon;timestamp;temperature;humidity
12839;DHT22;6486;51.034;5.262;2022-10-19T00:00:48;13.00;75.40
12839;DHT22;6486;51.034;5.262;2022-10-19T00:03:14;13.00;75.40
12839;DHT22;6486;51.034;5.262;2022-10-19T00:05:40;13.00;75.50
12839;DHT22;6486;51.034;5.262;2022-10-19T00:08:07;13.00;76.20
12839;DHT22;6486;51.034;5.262;2022-10-19T00:10:33;13.00;75.60
12839;DHT22;6486;51.034;5.262;2022-10-19T00:12:59;12.90;75.60
12839;DHT22;6486;51.034;5.262;2022-10-19T00:15:25;13.00;75.70
12839;DHT22;6486;51.034;5.262;2022-10-19T00:17:51;13.00;75.70
12839;DHT22;6486;51.034;5.262;2022-10-19T00:20:16;13.00;75.90
12839;DHT22;6486;51.034;5.262;2022-10-19T00:22:42;13.00;76.00
12839;DHT22;6486;51.034;5.262;2022-10-19T00:25:08;13.00;75.90
12839;DHT22;6486;51.034;5.262;2022-10-19T00:27:34;13.00;75.90
12839;DHT22;6486;51.034;5.262;2022-10-19T00:30:00;13.00;76.00
12839;DHT22;6486;51.034;5.262;2022-10-19T00:32:26;13.00;76.00
12839;DHT22;6486;51.034;5.262;2022-10-19T00:34:51;13.00;76.00
12839;DHT22;6486;51.034;5.262;2022-10-19T00:37:17;13.00;76.00
12839;DHT22;6486;51.034;5.262;2022-10-19T00:39:43;13.00;76.00
12839;DHT22;6486;51.034;5.262;2022-10-19T00:42:12;13.00;76.10
12839;DHT22;6486;51.034;5.262;2022-10-19T00:47:06;13.00;76.10
12839;DHT22;6486;51.034;5.262;2022-10-19T00:49:36;13.00;76.10
12839;DHT22;6486;51.034;5.262;2022-10-19T00:52:06;13.00;76.10
12839;DHT22;6486;51.034;5.262;2022-10-19T00:54:36;12.90;76.20
12839;DHT22;6486;51.034;5.262;2022-10-19T00:57:04;12.90;76.20
12839;DHT22;6486;51.034;5.262;2022-10-19T00:59:30;12.90;76.20
12839;DHT22;6486;51.034;5.262;2022-10-19T01:01:57;12.90;76.20
12839;DHT22;6486;51.034;5.262;2022-10-19T01:04:24;12.90;76.20
12839;DHT22;6486;51.034;5.262;2022-10-19T01:06:52;12.90;76.20
12839;DHT22;6486;51.034;5.262;2022-10-19T01:09:18;12.80;76.20
12839;DHT22;6486;51.034;5.262;2022-10-19T01:17:12;12.80;76.30
12839;DHT22;6486;51.034;5.262;2022-10-19T01:31:00;12.80;76.50
12839;DHT22;6486;51.034;5.262;2022-10-19T01:33:45;12.70;76.50
12839;DHT22;6486;51.034;5.262;2022-10-19T01:41:49;12.70;76.60
12839;DHT22;6486;51.034;5.262;2022-10-19T01:44:42;12.70;76.70
12839;DHT22;6486;51.034;5.262;2022-10-19T01:47:33;12.60;76.70
12839;DHT22;6486;51.034;5.262;2022-10-19T01:50:16;12.60;76.80
12839;DHT22;6486;51.034;5.262;2022-10-19T01:52:43;12.60;76.80
12839;DHT22;6486;51.034;5.262;2022-10-19T01:55:12;12.60;76.80
12839;DHT22;6486;51.034;5.262;2022-10-19T01:57:45;12.60;76.80
12839;DHT22;6486;51.034;5.262;2022-10-19T02:00:13;12.60;76.80
12839;DHT22;6486;51.034;5.262;2022-10-19T02:02:44;12.60;76.80
12839;DHT22;6486;51.034;5.262;2022-10-19T02:05:10;12.60;77.00
12839;DHT22;6486;51.034;5.262;2022-10-19T02:07:39;12.50;76.80
12839;DHT22;6486;51.034;5.262;2022-10-19T02:10:06;12.50;76.90
12839;DHT22;6486;51.034;5.262;2022-10-19T02:12:33;12.50;77.60
12839;DHT22;6486;51.034;5.262;2022-10-19T02:15:02;12.40;77.00
12839;DHT22;6486;51.034;5.262;2022-10-19T02:17:34;12.50;77.10
12839;DHT22;6486;51.034;5.262;2022-10-19T02:20:01;12.50;77.20
12839;DHT22;6486;51.034;5.262;2022-10-19T02:22:27;12.50;77.20
12839;DHT22;6486;51.034;5.262;2022-10-19T02:24:53;12.50;77.20
12839;DHT22;6486;51.034;5.262;2022-10-19T02:27:19;12.40;77.10
12839;DHT22;6486;51.034;5.262;2022-10-19T02:29:45;12.40;77.20
12839;DHT22;6486;51.034;5.262;2022-10-19T02:32:11;12.40;77.10
12839;DHT22;6486;51.034;5.262;2022-10-19T02:34:37;12.40;77.90
12839;DHT22;6486;51.034;5.262;2022-10-19T02:37:04;12.40;77.30
12839;DHT22;6486;51.034;5.262;2022-10-19T02:39:30;12.40;77.90
12839;DHT22;6486;51.034;5.262;2022-10-19T02:42:16;12.30;77.10
12839;DHT22;6486;51.034;5.262;2022-10-19T02:47:23;12.40;77.10
12839;DHT22;6486;51.034;5.262;2022-10-19T02:49:51;12.30;77.10
12839;DHT22;6486;51.034;5.262;2022-10-19T02:52:17;12.30;77.10
12839;DHT22;6486;51.034;5.262;2022-10-19T02:54:43;12.30;77.30
12839;DHT22;6486;51.034;5.262;2022-10-19T02:59:42;12.20;77.30
12839;DHT22;6486;51.034;5.262;2022-10-19T03:02:08;12.20;77.20
12839;DHT22;6486;51.034;5.262;2022-10-19T03:04:34;12.20;77.20
12839;DHT22;6486;51.034;5.262;2022-10-19T03:06:59;12.20;77.20
12839;DHT22;6486;51.034;5.262;2022-10-19T03:09:25;12.20;77.30
12839;DHT22;6486;51.034;5.262;2022-10-19T03:11:51;12.10;77.30
12839;DHT22;6486;51.034;5.262;2022-10-19T03:14:17;12.10;77.30
12839;DHT22;6486;51.034;5.262;2022-10-19T03:16:42;12.10;77.30
12839;DHT22;6486;51.034;5.262;2022-10-19T03:19:08;12.10;77.40
12839;DHT22;6486;51.034;5.262;2022-10-19T03:21:34;12.10;77.30
12839;DHT22;6486;51.034;5.262;2022-10-19T03:24:00;12.10;77.30
12839;DHT22;6486;51.034;5.262;2022-10-19T03:26:26;12.00;77.30
12839;DHT22;6486;51.034;5.262;2022-10-19T03:28:51;12.00;77.30
12839;DHT22;6486;51.034;5.262;2022-10-19T03:31:17;12.00;77.30
12839;DHT22;6486;51.034;5.262;2022-10-19T03:33:44;12.00;77.30
12839;DHT22;6486;51.034;5.262;2022-10-19T03:38:56;11.90;77.20
12839;DHT22;6486;51.034;5.262;2022-10-19T03:41:24;11.90;77.20
12839;DHT22;6486;51.034;5.262;2022-10-19T03:43:50;11.90;77.20
12839;DHT22;6486;51.034;5.262;2022-10-19T03:46:16;11.80;77.20
12839;DHT22;6486;51.034;5.262;2022-10-19T03:48:42;11.80;77.10
12839;DHT22;6486;51.034;5.262;2022-10-19T03:51:11;11.80;77.20
12839;DHT22;6486;51.034;5.262;2022-10-19T03:53:37;11.80;77.30
12839;DHT22;6486;51.034;5.262;2022-10-19T03:56:09;11.80;77.30
12839;DHT22;6486;51.034;5.262;2022-10-19T03:58:36;11.70;77.20
12839;DHT22;6486;51.034;5.262;2022-10-19T04:01:05;11.70;77.30
12839;DHT22;6486;51.034;5.262;2022-10-19T04:03:32;11.70;77.40
12839;DHT22;6486;51.034;5.262;2022-10-19T04:06:02;11.70;77.50
12839;DHT22;6486;51.034;5.262;2022-10-19T04:08:28;11.70;77.60
12839;DHT22;6486;51.034;5.262;2022-10-19T04:10:58;11.70;77.60
12839;DHT22;6486;51.034;5.262;2022-10-19T04:13:24;11.70;77.60
12839;DHT22;6486;51.034;5.262;2022-10-19T04:15:50;11.70;77.60
12839;DHT22;6486;51.034;5.262;2022-10-19T04:18:16;11.70;77.70
12839;DHT22;6486;51.034;5.262;2022-10-19T04:20:41;11.70;77.70
12839;DHT22;6486;51.034;5.262;2022-10-19T04:23:08;11.60;77.80
12839;DHT22;6486;51.034;5.262;2022-10-19T04:25:34;11.60;77.90
12839;DHT22;6486;51.034;5.262;2022-10-19T04:27:59;11.60;77.90
12839;DHT22;6486;51.034;5.262;2022-10-19T04:30:25;11.60;78.00
12839;DHT22;6486;51.034;5.262;2022-10-19T04:32:51;11.60;78.00
12839;DHT22;6486;51.034;5.262;2022-10-19T04:35:16;11.60;77.90
12839;DHT22;6486;51.034;5.262;2022-10-19T04:37:42;11.60;77.90
12839;DHT22;6486;51.034;5.262;2022-10-19T04:40:08;11.60;77.90
12839;DHT22;6486;51.034;5.262;2022-10-19T04:42:34;11.70;78.00
12839;DHT22;6486;51.034;5.262;2022-10-19T04:44:59;11.70;78.10
12839;DHT22;6486;51.034;5.262;2022-10-19T04:47:25;11.70;78.10
12839;DHT22;6486;51.034;5.262;2022-10-19T04:49:51;11.70;78.10
12839;DHT22;6486;51.034;5.262;2022-10-19T04:52:16;11.70;78.10
12839;DHT22;6486;51.034;5.262;2022-10-19T04:54:42;11.60;78.00
12839;DHT22;6486;51.034;5.262;2022-10-19T04:57:07;11.60;78.10
12839;DHT22;6486;51.034;5.262;2022-10-19T04:59:33;11.60;78.10
12839;DHT22;6486;51.034;5.262;2022-10-19T05:01:59;11.60;78.10
12839;DHT22;6486;51.034;5.262;2022-10-19T05:04:24;11.60;78.10
12839;DHT22;6486;51.034;5.262;2022-10-19T05:06:50;11.60;78.00
12839;DHT22;6486;51.034;5.262;2022-10-19T05:09:16;11.60;78.10
12839;DHT22;6486;51.034;5.262;2022-10-19T05:11:41;11.60;78.00
12839;DHT22;6486;51.034;5.262;2022-10-19T05:14:07;11.60;77.90
12839;DHT22;6486;51.034;5.262;2022-10-19T05:16:33;11.60;77.90
12839;DHT22;6486;51.034;5.262;2022-10-19T05:18:58;11.60;77.90
12839;DHT22;6486;51.034;5.262;2022-10-19T05:21:25;11.50;77.90
12839;DHT22;6486;51.034;5.262;2022-10-19T05:23:53;11.50;77.90
12839;DHT22;6486;51.034;5.262;2022-10-19T05:26:22;11.50;77.90
12839;DHT22;6486;51.034;5.262;2022-10-19T05:28:50;11.50;77.80
12839;DHT22;6486;51.034;5.262;2022-10-19T05:31:20;11.40;77.70
12839;DHT22;6486;51.034;5.262;2022-10-19T05:33:46;11.40;77.70
12839;DHT22;6486;51.034;5.262;2022-10-19T05:38:56;11.30;77.70
12839;DHT22;6486;51.034;5.262;2022-10-19T05:41:22;11.30;77.70
12839;DHT22;6486;51.034;5.262;2022-10-19T05:43:53;11.20;77.70
12839;DHT22;6486;51.034;5.262;2022-10-19T05:46:19;11.20;77.70
12839;DHT22;6486;51.034;5.262;2022-10-19T05:48:45;11.20;77.70
12839;DHT22;6486;51.034;5.262;2022-10-19T05:51:14;11.20;78.40
12839;DHT22;6486;51.034;5.262;2022-10-19T05:53:40;11.10;77.80
12839;DHT22;6486;51.034;5.262;2022-10-19T05:56:07;11.10;77.80
12839;DHT22;6486;51.034;5.262;2022-10-19T05:58:34;11.10;77.80
12839;DHT22;6486;51.034;5.262;2022-10-19T06:01:01;11.10;77.80
12839;DHT22;6486;51.034;5.262;2022-10-19T06:03:27;11.10;77.80
12839;DHT22;6486;51.034;5.262;2022-10-19T06:05:54;11.10;77.80
12839;DHT22;6486;51.034;5.262;2022-10-19T06:08:21;11.10;77.80
12839;DHT22;6486;51.034;5.262;2022-10-19T06:10:47;11.10;77.90
12839;DHT22;6486;51.034;5.262;2022-10-19T06:13:14;11.10;77.90
12839;DHT22;6486;51.034;5.262;2022-10-19T06:15:40;11.00;78.40
12839;DHT22;6486;51.034;5.262;2022-10-19T06:18:07;11.10;77.80
12839;DHT22;6486;51.034;5.262;2022-10-19T06:20:34;11.10;77.90
12839;DHT22;6486;51.034;5.262;2022-10-19T06:23:00;11.10;77.90
12839;DHT22;6486;51.034;5.262;2022-10-19T06:25:28;11.00;77.70
12839;DHT22;6486;51.034;5.262;2022-10-19T06:27:53;11.00;77.70
12839;DHT22;6486;51.034;5.262;2022-10-19T06:30:19;11.00;77.80
12839;DHT22;6486;51.034;5.262;2022-10-19T06:32:45;11.00;77.80
12839;DHT22;6486;51.034;5.262;2022-10-19T06:35:10;11.00;77.80
12839;DHT22;6486;51.034;5.262;2022-10-19T06:37:36;11.10;77.90
12839;DHT22;6486;51.034;5.262;2022-10-19T06:40:02;11.10;77.90
12839;DHT22;6486;51.034;5.262;2022-10-19T06:42:28;11.10;77.90
12839;DHT22;6486;51.034;5.262;2022-10-19T06:44:53;11.10;77.90
12839;DHT22;6486;51.034;5.262;2022-10-19T06:47:19;11.10;77.90
12839;DHT22;6486;51.034;5.262;2022-10-19T06:49:45;11.10;77.90
12839;DHT22;6486;51.034;5.262;2022-10-19T06:52:10;11.20;78.10
12839;DHT22;6486;51.034;5.262;2022-10-19T06:54:36;11.20;78.10
12839;DHT22;6486;51.034;5.262;2022-10-19T06:57:02;11.30;78.20
12839;DHT22;6486;51.034;5.262;2022-10-19T06:59:27;11.30;78.20
12839;DHT22;6486;51.034;5.262;2022-10-19T07:01:53;11.30;78.30
12839;DHT22;6486;51.034;5.262;2022-10-19T07:04:18;11.40;78.40
12839;DHT22;6486;51.034;5.262;2022-10-19T07:06:44;11.40;78.40
12839;DHT22;6486;51.034;5.262;2022-10-19T07:09:10;11.40;78.40
12839;DHT22;6486;51.034;5.262;2022-10-19T07:11:36;11.40;78.50
12839;DHT22;6486;51.034;5.262;2022-10-19T07:14:02;11.50;78.70
12839;DHT22;6486;51.034;5.262;2022-10-19T07:16:27;11.50;78.60
12839;DHT22;6486;51.034;5.262;2022-10-19T07:18:53;11.60;78.70
12839;DHT22;6486;51.034;5.262;2022-10-19T07:21:20;11.60;79.30
12839;DHT22;6486;51.034;5.262;2022-10-19T07:23:46;11.60;78.70
12839;DHT22;6486;51.034;5.262;2022-10-19T07:26:16;11.70;78.70
12839;DHT22;6486;51.034;5.262;2022-10-19T07:28:45;11.80;78.80
12839;DHT22;6486;51.034;5.262;2022-10-19T07:31:13;11.80;78.70
12839;DHT22;6486;51.034;5.262;2022-10-19T07:33:39;11.90;78.80
12839;DHT22;6486;51.034;5.262;2022-10-19T07:36:07;11.90;78.80
12839;DHT22;6486;51.034;5.262;2022-10-19T07:38:33;12.00;78.90
12839;DHT22;6486;51.034;5.262;2022-10-19T07:41:00;12.00;78.90
12839;DHT22;6486;51.034;5.262;2022-10-19T07:43:26;12.10;79.00
12839;DHT22;6486;51.034;5.262;2022-10-19T07:45:57;12.20;79.10
12839;DHT22;6486;51.034;5.262;2022-10-19T07:48:23;12.20;79.00
12839;DHT22;6486;51.034;5.262;2022-10-19T07:50:48;12.30;79.00
12839;DHT22;6486;51.034;5.262;2022-10-19T07:53:14;12.40;79.10
12839;DHT22;6486;51.034;5.262;2022-10-19T07:55:39;12.40;78.90
12839;DHT22;6486;51.034;5.262;2022-10-19T07:58:05;12.50;79.00
12839;DHT22;6486;51.034;5.262;2022-10-19T08:00:32;12.50;79.00
12839;DHT22;6486;51.034;5.262;2022-10-19T08:02:57;12.60;79.00
12839;DHT22;6486;51.034;5.262;2022-10-19T08:05:23;12.60;78.80
12839;DHT22;6486;51.034;5.262;2022-10-19T08:07:48;12.70;78.90
12839;DHT22;6486;51.034;5.262;2022-10-19T08:10:14;12.80;78.90
12839;DHT22;6486;51.034;5.262;2022-10-19T08:12:40;12.80;78.90
12839;DHT22;6486;51.034;5.262;2022-10-19T08:15:05;12.90;78.80
12839;DHT22;6486;51.034;5.262;2022-10-19T08:17:34;13.00;78.70
12839;DHT22;6486;51.034;5.262;2022-10-19T08:20:01;13.10;78.60
12839;DHT22;6486;51.034;5.262;2022-10-19T08:22:26;13.20;78.50
12839;DHT22;6486;51.034;5.262;2022-10-19T08:24:52;13.30;78.50
12839;DHT22;6486;51.034;5.262;2022-10-19T08:27:18;13.40;78.40
12839;DHT22;6486;51.034;5.262;2022-10-19T08:29:43;13.50;78.50
12839;DHT22;6486;51.034;5.262;2022-10-19T08:32:09;13.60;78.40
12839;DHT22;6486;51.034;5.262;2022-10-19T08:34:34;13.70;78.30
12839;DHT22;6486;51.034;5.262;2022-10-19T08:37:01;13.80;78.10
12839;DHT22;6486;51.034;5.262;2022-10-19T08:39:28;13.90;77.90
12839;DHT22;6486;51.034;5.262;2022-10-19T08:45:06;14.00;77.50
12839;DHT22;6486;51.034;5.262;2022-10-19T08:50:39;14.20;77.30
12839;DHT22;6486;51.034;5.262;2022-10-19T08:54:10;14.30;77.10
12839;DHT22;6486;51.034;5.262;2022-10-19T08:56:12;14.30;76.90
12839;DHT22;6486;51.034;5.262;2022-10-19T09:07:24;14.70;76.60
12839;DHT22;6486;51.034;5.262;2022-10-19T09:10:02;14.80;76.50
12839;DHT22;6486;51.034;5.262;2022-10-19T09:12:43;15.00;76.40
12839;DHT22;6486;51.034;5.262;2022-10-19T09:15:12;15.10;76.20
12839;DHT22;6486;51.034;5.262;2022-10-19T09:17:39;15.20;76.10
12839;DHT22;6486;51.034;5.262;2022-10-19T09:20:17;15.30;76.00
12839;DHT22;6486;51.034;5.262;2022-10-19T09:22:44;15.40;75.80
12839;DHT22;6486;51.034;5.262;2022-10-19T09:25:19;15.40;75.40
12839;DHT22;6486;51.034;5.262;2022-10-19T09:28:16;15.50;75.40
12839;DHT22;6486;51.034;5.262;2022-10-19T09:30:45;15.60;75.30
12839;DHT22;6486;51.034;5.262;2022-10-19T09:33:22;15.60;75.00
12839;DHT22;6486;51.034;5.262;2022-10-19T09:35:49;15.60;74.70
12839;DHT22;6486;51.034;5.262;2022-10-19T09:38:15;15.70;75.20
12839;DHT22;6486;51.034;5.262;2022-10-19T09:40:42;15.70;74.50
12839;DHT22;6486;51.034;5.262;2022-10-19T09:43:08;15.70;74.50
12839;DHT22;6486;51.034;5.262;2022-10-19T09:45:54;15.80;74.40
12839;DHT22;6486;51.034;5.262;2022-10-19T09:48:32;15.90;74.30
12839;DHT22;6486;51.034;5.262;2022-10-19T09:51:02;16.00;74.10
12839;DHT22;6486;51.034;5.262;2022-10-19T09:53:28;16.10;74.10
12839;DHT22;6486;51.034;5.262;2022-10-19T09:56:08;16.20;73.90
12839;DHT22;6486;51.034;5.262;2022-10-19T09:58:49;16.30;73.80
12839;DHT22;6486;51.034;5.262;2022-10-19T10:01:34;16.30;73.50
12839;DHT22;6486;51.034;5.262;2022-10-19T10:04:18;16.40;73.40
12839;DHT22;6486;51.034;5.262;2022-10-19T10:06:46;16.40;73.20
12839;DHT22;6486;51.034;5.262;2022-10-19T10:09:17;16.40;73.00
12839;DHT22;6486;51.034;5.262;2022-10-19T10:11:45;16.40;72.80
12839;DHT22;6486;51.034;5.262;2022-10-19T10:16:46;16.60;72.50
12839;DHT22;6486;51.034;5.262;2022-10-19T10:19:15;16.70;72.50
12839;DHT22;6486;51.034;5.262;2022-10-19T10:21:54;16.80;72.30
12839;DHT22;6486;51.034;5.262;2022-10-19T10:27:02;17.00;71.90
12839;DHT22;6486;51.034;5.262;2022-10-19T10:29:36;17.10;71.60
12839;DHT22;6486;51.034;5.262;2022-10-19T10:32:11;17.20;71.40
12839;DHT22;6486;51.034;5.262;2022-10-19T10:34:41;17.30;71.40
12839;DHT22;6486;51.034;5.262;2022-10-19T10:38:02;17.40;72.10
12839;DHT22;6486;51.034;5.262;2022-10-19T10:40:02;17.50;71.30
12839;DHT22;6486;51.034;5.262;2022-10-19T10:42:41;17.70;71.00
12839;DHT22;6486;51.034;5.262;2022-10-19T10:45:21;17.80;70.80
12839;DHT22;6486;51.034;5.262;2022-10-19T10:47:48;17.80;70.20
12839;DHT22;6486;51.034;5.262;2022-10-19T10:50:21;17.90;70.90
12839;DHT22;6486;51.034;5.262;2022-10-19T10:53:05;18.00;69.60
12839;DHT22;6486;51.034;5.262;2022-10-19T10:55:33;18.10;69.60
12839;DHT22;6486;51.034;5.262;2022-10-19T10:58:44;18.20;69.70
12839;DHT22;6486;51.034;5.262;2022-10-19T11:01:26;18.30;69.40
12839;DHT22;6486;51.034;5.262;2022-10-19T11:03:59;18.40;70.00
12839;DHT22;6486;51.034;5.262;2022-10-19T11:06:26;18.40;68.20
12839;DHT22;6486;51.034;5.262;2022-10-19T11:09:33;18.40;68.10
12839;DHT22;6486;51.034;5.262;2022-10-19T11:12:04;18.50;68.10
12839;DHT22;6486;51.034;5.262;2022-10-19T11:14:52;18.60;67.50
12839;DHT22;6486;51.034;5.262;2022-10-19T11:17:31;18.60;67.20
12839;DHT22;6486;51.034;5.262;2022-10-19T11:19:58;18.60;66.60
12839;DHT22;6486;51.034;5.262;2022-10-19T11:30:24;18.80;64.70
12839;DHT22;6486;51.034;5.262;2022-10-19T11:37:59;18.80;64.40
12839;DHT22;6486;51.034;5.262;2022-10-19T11:45:54;18.90;64.40
12839;DHT22;6486;51.034;5.262;2022-10-19T11:53:49;18.90;63.70
12839;DHT22;6486;51.034;5.262;2022-10-19T11:59:31;19.00;64.00
12839;DHT22;6486;51.034;5.262;2022-10-19T12:05:00;19.00;63.60
12839;DHT22;6486;51.034;5.262;2022-10-19T12:12:42;19.00;63.40
12839;DHT22;6486;51.034;5.262;2022-10-19T12:18:14;18.90;63.30
12839;DHT22;6486;51.034;5.262;2022-10-19T12:20:51;18.90;62.40
12839;DHT22;6486;51.034;5.262;2022-10-19T12:23:37;18.90;62.90
12839;DHT22;6486;51.034;5.262;2022-10-19T12:26:09;18.90;63.20
12839;DHT22;6486;51.034;5.262;2022-10-19T12:28:38;19.00;63.50
12839;DHT22;6486;51.034;5.262;2022-10-19T12:31:05;19.10;63.10
12839;DHT22;6486;51.034;5.262;2022-10-19T12:47:11;19.10;63.50
12839;DHT22;6486;51.034;5.262;2022-10-19T12:49:49;19.00;64.10
12839;DHT22;6486;51.034;5.262;2022-10-19T12:52:42;19.00;63.40
12839;DHT22;6486;51.034;5.262;2022-10-19T12:57:42;18.80;63.10
12839;DHT22;6486;51.034;5.262;2022-10-19T13:00:20;18.70;63.10
12839;DHT22;6486;51.034;5.262;2022-10-19T13:05:28;18.60;63.30
12839;DHT22;6486;51.034;5.262;2022-10-19T13:07:54;18.60;63.50
12839;DHT22;6486;51.034;5.262;2022-10-19T13:10:23;18.50;63.40
12839;DHT22;6486;51.034;5.262;2022-10-19T13:12:50;18.50;63.60
12839;DHT22;6486;51.034;5.262;2022-10-19T13:18:01;18.40;63.60
12839;DHT22;6486;51.034;5.262;2022-10-19T13:25:35;18.60;63.50
12839;DHT22;6486;51.034;5.262;2022-10-19T14:07:46;19.30;63.30
12839;DHT22;6486;51.034;5.262;2022-10-19T14:10:18;19.40;63.30
12839;DHT22;6486;51.034;5.262;2022-10-19T14:12:45;19.40;63.30
12839;DHT22;6486;51.034;5.262;2022-10-19T14:15:28;19.40;63.90
12839;DHT22;6486;51.034;5.262;2022-10-19T14:17:54;19.50;63.50
12839;DHT22;6486;51.034;5.262;2022-10-19T14:22:49;19.60;63.70
12839;DHT22;6486;51.034;5.262;2022-10-19T14:25:23;19.80;64.00
12839;DHT22;6486;51.034;5.262;2022-10-19T14:27:57;19.90;63.80
12839;DHT22;6486;51.034;5.262;2022-10-19T14:30:29;20.10;64.00
12839;DHT22;6486;51.034;5.262;2022-10-19T14:32:59;20.30;63.80
12839;DHT22;6486;51.034;5.262;2022-10-19T14:35:35;20.50;63.50
12839;DHT22;6486;51.034;5.262;2022-10-19T14:38:04;20.70;63.10
12839;DHT22;6486;51.034;5.262;2022-10-19T14:40:32;20.80;62.90
12839;DHT22;6486;51.034;5.262;2022-10-19T14:42:59;20.90;62.50
12839;DHT22;6486;51.034;5.262;2022-10-19T14:45:30;20.90;62.10
12839;DHT22;6486;51.034;5.262;2022-10-19T14:48:05;20.90;61.40
12839;DHT22;6486;51.034;5.262;2022-10-19T14:50:52;20.80;61.30
12839;DHT22;6486;51.034;5.262;2022-10-19T14:53:39;20.70;61.20
12839;DHT22;6486;51.034;5.262;2022-10-19T14:56:22;20.50;61.20
12839;DHT22;6486;51.034;5.262;2022-10-19T14:58:56;20.30;61.50
12839;DHT22;6486;51.034;5.262;2022-10-19T15:01:23;20.10;61.50
12839;DHT22;6486;51.034;5.262;2022-10-19T15:03:49;20.10;61.90
12839;DHT22;6486;51.034;5.262;2022-10-19T15:06:25;20.40;61.50
12839;DHT22;6486;51.034;5.262;2022-10-19T15:08:57;20.70;61.00
12839;DHT22;6486;51.034;5.262;2022-10-19T15:11:36;20.50;60.80
12839;DHT22;6486;51.034;5.262;2022-10-19T15:14:14;20.20;61.20
12839;DHT22;6486;51.034;5.262;2022-10-19T15:16:43;19.90;61.50
12839;DHT22;6486;51.034;5.262;2022-10-19T15:22:17;19.40;62.20
12839;DHT22;6486;51.034;5.262;2022-10-19T15:25:57;19.10;62.60
12839;DHT22;6486;51.034;5.262;2022-10-19T15:28:36;18.90;63.10
12839;DHT22;6486;51.034;5.262;2022-10-19T15:31:18;18.80;63.60
12839;DHT22;6486;51.034;5.262;2022-10-19T15:33:53;18.60;63.80
12839;DHT22;6486;51.034;5.262;2022-10-19T15:36:20;18.50;64.10
12839;DHT22;6486;51.034;5.262;2022-10-19T15:41:31;18.30;64.70
12839;DHT22;6486;51.034;5.262;2022-10-19T15:44:04;18.20;64.90
12839;DHT22;6486;51.034;5.262;2022-10-19T15:46:34;18.10;65.10
12839;DHT22;6486;51.034;5.262;2022-10-19T15:52:19;17.90;65.70
12839;DHT22;6486;51.034;5.262;2022-10-19T15:54:49;17.80;65.90
12839;DHT22;6486;51.034;5.262;2022-10-19T15:59:49;17.70;66.30
12839;DHT22;6486;51.034;5.262;2022-10-19T16:02:15;17.60;66.40
12839;DHT22;6486;51.034;5.262;2022-10-19T16:04:40;17.60;66.60
12839;DHT22;6486;51.034;5.262;2022-10-19T16:07:09;17.60;66.80
12839;DHT22;6486;51.034;5.262;2022-10-19T16:09:39;17.50;66.80
12839;DHT22;6486;51.034;5.262;2022-10-19T16:12:04;17.50;67.10
12839;DHT22;6486;51.034;5.262;2022-10-19T16:14:30;17.40;67.30
12839;DHT22;6486;51.034;5.262;2022-10-19T16:16:55;17.30;67.40
12839;DHT22;6486;51.034;5.262;2022-10-19T16:19:21;17.30;67.70
12839;DHT22;6486;51.034;5.262;2022-10-19T16:21:47;17.20;67.80
12839;DHT22;6486;51.034;5.262;2022-10-19T16:24:12;17.10;68.00
12839;DHT22;6486;51.034;5.262;2022-10-19T16:26:38;17.10;68.30
12839;DHT22;6486;51.034;5.262;2022-10-19T16:29:04;17.00;68.70
12839;DHT22;6486;51.034;5.262;2022-10-19T16:31:29;16.90;68.80
12839;DHT22;6486;51.034;5.262;2022-10-19T16:33:56;16.80;69.00
12839;DHT22;6486;51.034;5.262;2022-10-19T16:36:21;16.80;69.10
12839;DHT22;6486;51.034;5.262;2022-10-19T16:38:47;16.70;69.20
12839;DHT22;6486;51.034;5.262;2022-10-19T16:41:13;16.70;69.40
12839;DHT22;6486;51.034;5.262;2022-10-19T16:43:39;16.60;69.60
12839;DHT22;6486;51.034;5.262;2022-10-19T16:46:05;16.60;69.70
12839;DHT22;6486;51.034;5.262;2022-10-19T16:48:30;16.50;69.90
12839;DHT22;6486;51.034;5.262;2022-10-19T16:53:32;16.40;70.10
12839;DHT22;6486;51.034;5.262;2022-10-19T16:56:07;16.40;70.90
12839;DHT22;6486;51.034;5.262;2022-10-19T16:58:33;16.40;70.40
12839;DHT22;6486;51.034;5.262;2022-10-19T17:00:58;16.30;71.20
12839;DHT22;6486;51.034;5.262;2022-10-19T17:03:30;16.30;70.70
12839;DHT22;6486;51.034;5.262;2022-10-19T17:05:55;16.30;70.80
12839;DHT22;6486;51.034;5.262;2022-10-19T17:08:21;16.30;71.00
12839;DHT22;6486;51.034;5.262;2022-10-19T17:10:47;16.20;71.10
12839;DHT22;6486;51.034;5.262;2022-10-19T17:13:12;16.20;71.10
12839;DHT22;6486;51.034;5.262;2022-10-19T17:15:38;16.20;71.30
12839;DHT22;6486;51.034;5.262;2022-10-19T17:18:04;16.20;71.40
12839;DHT22;6486;51.034;5.262;2022-10-19T17:20:31;16.20;71.50
12839;DHT22;6486;51.034;5.262;2022-10-19T17:22:57;16.20;71.60
12839;DHT22;6486;51.034;5.262;2022-10-19T17:25:23;16.20;71.70
12839;DHT22;6486;51.034;5.262;2022-10-19T17:27:50;16.20;71.70
12839;DHT22;6486;51.034;5.262;2022-10-19T17:30:15;16.20;71.90
12839;DHT22;6486;51.034;5.262;2022-10-19T17:32:41;16.20;71.90
12839;DHT22;6486;51.034;5.262;2022-10-19T17:35:07;16.10;71.80
12839;DHT22;6486;51.034;5.262;2022-10-19T17:37:33;16.20;72.00
12839;DHT22;6486;51.034;5.262;2022-10-19T17:39:58;16.20;72.60
12839;DHT22;6486;51.034;5.262;2022-10-19T17:42:24;16.20;72.10
12839;DHT22;6486;51.034;5.262;2022-10-19T17:44:50;16.20;72.10
12839;DHT22;6486;51.034;5.262;2022-10-19T17:47:17;16.10;72.00
12839;DHT22;6486;51.034;5.262;2022-10-19T17:49:43;16.10;72.10
12839;DHT22;6486;51.034;5.262;2022-10-19T17:52:08;16.10;72.10
12839;DHT22;6486;51.034;5.262;2022-10-19T17:54:34;16.10;72.20
12839;DHT22;6486;51.034;5.262;2022-10-19T17:57:00;16.10;72.40
12839;DHT22;6486;51.034;5.262;2022-10-19T17:59:25;16.00;72.40
12839;DHT22;6486;51.034;5.262;2022-10-19T18:01:51;16.00;72.50
12839;DHT22;6486;51.034;5.262;2022-10-19T18:04:17;16.00;72.50
12839;DHT22;6486;51.034;5.262;2022-10-19T18:06:42;16.00;72.60
12839;DHT22;6486;51.034;5.262;2022-10-19T18:09:08;16.00;72.60
12839;DHT22;6486;51.034;5.262;2022-10-19T18:11:43;16.00;72.60
12839;DHT22;6486;51.034;5.262;2022-10-19T18:14:10;15.90;72.50
12839;DHT22;6486;51.034;5.262;2022-10-19T18:16:39;16.00;72.70
12839;DHT22;6486;51.034;5.262;2022-10-19T18:19:06;15.90;72.80
12839;DHT22;6486;51.034;5.262;2022-10-19T18:21:44;15.90;72.80
12839;DHT22;6486;51.034;5.262;2022-10-19T18:24:13;15.90;72.90
12839;DHT22;6486;51.034;5.262;2022-10-19T18:26:41;15.90;72.80
12839;DHT22;6486;51.034;5.262;2022-10-19T18:29:13;15.90;72.90
12839;DHT22;6486;51.034;5.262;2022-10-19T18:31:40;15.80;72.90
12839;DHT22;6486;51.034;5.262;2022-10-19T18:34:07;15.80;73.00
12839;DHT22;6486;51.034;5.262;2022-10-19T18:36:33;15.80;73.20
12839;DHT22;6486;51.034;5.262;2022-10-19T18:39:03;15.70;73.10
12839;DHT22;6486;51.034;5.262;2022-10-19T18:41:29;15.70;73.30
12839;DHT22;6486;51.034;5.262;2022-10-19T18:44:00;15.70;73.30
12839;DHT22;6486;51.034;5.262;2022-10-19T18:46:27;15.70;73.40
12839;DHT22;6486;51.034;5.262;2022-10-19T18:48:53;15.70;73.40
12839;DHT22;6486;51.034;5.262;2022-10-19T18:51:20;15.70;73.50
12839;DHT22;6486;51.034;5.262;2022-10-19T18:53:46;15.70;73.60